• Join FlightAware (Why Join?)
  • Login
  • US Flag 
Rudolph Flight #1: Arrived! 
12:26AM EST


 

Airport Tracker/Info


-or-


 

Live Flight TrackerFlight Track Log ✈ SKW4751 ✈ 12-May-2013 ✈ KMSP - KFAR

Flight Track Log - Related Links

Times and Time Zones

All times are in EDT time to prevent confusion due to time zone crossing. See the SKW4751 flight status page for this flight to view local times or setup timezone preferences in your user account.

Time Position Orientation Groundspeed Altitude Reporting Facility
EDT Latitude Longitude Course Direction KTS MPH feet Rate Location/Type
10:54PM 44.8667 -93.1667 301° West 172 198 2,200  Level Minneapolis TRACON
10:55PM 44.8608 -93.0972 97° East 218 251 3,800 2,460 Climbing Minneapolis Center
10:56PM 44.8997 -93.0281 52° Northeast 263 303 6,700 3,180 Climbing Minneapolis Center
10:57PM 45.1861 -93.4853 302° West  Level FlightAware Approximate
10:57PM 44.9656 -93.0569 343° North 253 291 10,300  Level Minneapolis Center
10:58PM 45.2302 -93.6070 295° West  Level FlightAware Approximate
10:58PM 45.0081 -93.1472 304° West 281 323 12,600  Level Minneapolis Center
10:59PM 45.2724 -93.7301 301° West  Level FlightAware Approximate
10:59PM 45.0542 -93.2481 303° West 308 354 14,900  Level Minneapolis Center
11:00PM 45.1017 -93.3544 302° West 321 369 17,300 2,280 Climbing Minneapolis Center
11:01PM 45.1481 -93.4639 301° West 325 374 19,600 2,340 Climbing Minneapolis Center
11:02PM 45.2092 -93.5983 303° West 337 388 22,100 1,920 Climbing Minneapolis Center
11:03PM 45.2594 -93.7156 301° West 347 399 23,600 1,800 Climbing Minneapolis Center
11:04PM 45.3114 -93.8344 302° West 356 410 25,800 1,620 Climbing Minneapolis Center
11:05PM 45.3650 -93.9542 303° West 360 414 27,000 1,020 Climbing Minneapolis Center
11:06PM 45.4183 -94.0819 301° West 374 430 27,900 480 Climbing Minneapolis Center
11:07PM 45.4697 -94.2164 299° West 385 443 28,000  Climbing Minneapolis Center
11:08PM 45.5222 -94.3517 299° West 390 449 28,000 -60 Level Minneapolis Center
11:09PM 45.5731 -94.4844 299° West 385 443 27,900  Descending Minneapolis Center
11:10PM 45.6333 -94.6103 304° West 386 444 28,000  Climbing Minneapolis Center
11:11PM 45.6975 -94.7317 307° West 385 443 28,000  Level Minneapolis Center
11:12PM 45.7606 -94.8575 306° West 389 448 28,000  Level Minneapolis Center
11:13PM 45.8375 -95.0081 306° West 392 451 28,000  Level Minneapolis Center
11:14PM 45.9022 -95.1386 305° West 394 453 28,000  Level Minneapolis Center
11:15PM 45.9681 -95.2636 307° West 395 455 28,000  Level Minneapolis Center
11:16PM 46.0325 -95.3914 306° West 395 455 28,000 -1,200 Level Minneapolis Center
11:17PM 46.0936 -95.5156 305° West 385 443 25,600 -2,580 Descending Minneapolis Center
11:18PM 46.1539 -95.6317 307° West 368 423 22,800 -2,880 Descending Minneapolis Center
11:19PM 46.2117 -95.7456 306° West 356 410 19,800 -2,880 Descending Minneapolis Center
11:20PM 46.2725 -95.8678 306° West 345 397 17,100 -2,460 Descending Minneapolis Center
11:22PM 46.3261 -95.9744 306° West 339 390 14,900 -1,800 Descending Minneapolis Center
11:23PM 46.3836 -96.0669 312° West 293 337 13,500 -1,800 Descending Minneapolis Center
11:24PM 46.4464 -96.1367 323° Northwest 275 316 11,300 -2,040 Descending Minneapolis Center
11:25PM 46.5044 -96.1950 325° Northwest 264 304 9,400 -1,680 Descending Minneapolis Center
11:26PM 46.5631 -96.2606 322° Northwest 253 291 7,900 -1,380 Descending Minneapolis Center
11:27PM 46.6183 -96.3253 321° Northwest 246 283 6,700 -1,200 Descending Minneapolis Center
11:28PM 46.6672 -96.3872 319° Northwest 241 277 5,600 -1,200 Descending Minneapolis Center
11:29PM 46.7197 -96.4581 317° Northwest 247 284 4,400 -960 Descending Minneapolis Center
11:30PM 46.7622 -96.5144 318° Northwest 252 290 3,700 -660 Descending Minneapolis Center
11:31PM 46.8269 -96.5908 321° Northwest 250 288 3,100 -360 Descending Minneapolis Center
11:32PM 46.8775 -96.6539 320° Northwest 234 269 3,000 -60 Descending Minneapolis Center
11:33PM 46.9283 -96.6981 329° Northwest 226 260 3,000  Level Minneapolis Center
11:34PM 46.9928 -96.7003 359° North 224 258 3,000  Level Minneapolis Center